Argent Gerbera — V7UC4 — position and weather

sailwx.info

Track history (hours):
 
Tides and Currents Weather Stations Pressure Air Temp Water Temp Dewpoint Dewpoint Depression Visibility Wind Speed Wind Dir Waves Ship Positions

Argent Gerbera

Last reported at 2015-May-08 23:25 UTC. Time now 2015-May-29 20:26 UTC.
Position N 31°52' E 031°45'.
Warning: this ship's position is 20 days out of date.

Length 175 m; draft 11.3 m.

Type: Ship (hazmat cat C). MMSI: 538003929.

Date/timePositionNaut miles runAvg speedWind from/ knotsBaromVisibWave heightAir tempDewpointWater temp
2015-May-08 23:25N 31°52' E 031°45'1214.3
2015-May-08 22:33N 31°55' E 031°31'1414.2
2015-May-08 21:33N 31°59' E 031°16'1414.0
2015-May-08 20:34N 32°03' E 030°60'1413.6
2015-May-08 19:34N 32°08' E 030°44'1413.7
2015-May-08 18:33N 32°12' E 030°29'1413.7
2015-May-08 17:33N 32°16' E 030°14'1414.0
2015-May-08 16:33N 32°20' E 029°58'1414.0
2015-May-08 15:32N 32°25' E 029°42'1413.9
2015-May-08 14:33N 32°28' E 029°26'1413.7
2015-May-08 13:33N 32°32' E 029°10'1414.0
2015-May-08 12:31N 32°36' E 028°54'1514.8
2015-May-08 11:32N 32°41' E 028°38'3515.7
2015-May-08 09:17N 32°52' E 027°58'1214.6
2015-May-08 08:28N 32°55' E 027°44'52914.6
2015-May-06 20:11N 35°33' E 017°34'1614.9
2015-May-06 19:07N 35°38' E 017°15'1114.7
2015-May-06 18:20N 35°41' E 017°02'1214.6
2015-May-06 17:32N 35°45' E 016°48'1814.4
2015-May-06 16:17N 35°50' E 016°27'1114.5
2015-May-06 15:33N 35°54' E 016°14'1514.8
2015-May-06 14:33N 35°58' E 015°57'1514.8
2015-May-06 13:30N 36°02' E 015°38'1415.0
2015-May-06 12:33N 36°06' E 015°21'1514.7
2015-May-06 11:33N 36°11' E 015°04'1514.7
2015-May-06 10:33N 36°15' E 014°47'1514.5
2015-May-06 09:33N 36°21' E 014°30'1514.7
2015-May-06 08:33N 36°29' E 014°15'1515.1
2015-May-06 07:33N 36°37' E 013°59'1515.2
2015-May-06 06:34N 36°44' E 013°42'1515.2
2015-May-06 05:33N 36°50' E 013°25'1515.0
2015-May-06 04:34N 36°57' E 013°08'1514.7
2015-May-06 03:33N 37°03' E 012°51'1514.8
2015-May-06 02:34N 37°07' E 012°33'1514.8
2015-May-06 01:33N 37°12' E 012°16'1514.9
2015-May-06 00:33N 37°17' E 011°58'1514.9
2015-May-05 23:31N 37°23' E 011°40'1414.6
2015-May-05 22:33N 37°28' E 011°24'3115.0
2015-May-05 20:29N 37°39' E 010°47'4314.8
2015-May-05 17:33N 37°50' E 009°54'1515.1
2015-May-05 16:33N 37°50' E 009°35'1615.3
2015-May-05 15:33N 37°50' E 009°16'1515.3
2015-May-05 14:33N 37°50' E 008°56'1514.7
2015-May-05 13:32N 37°49' E 008°37'1914.4
2015-May-05 12:14N 37°46' E 008°14'10114.9
2015-May-05 05:29N 37°31' E 006°08'1415.7
2015-May-05 04:34N 37°29' E 005°50'1615.4
2015-May-05 03:33N 37°26' E 005°31'4815.1
2015-May-05 00:22N 37°17' E 004°31'1214.9
2015-May-04 23:33N 37°16' E 004°16'1715.4
2015-May-04 22:28N 37°14' E 003°55'2115.6
2015-May-04 21:07N 37°09' E 003°30'915.3
2015-May-04 20:33N 37°07' E 003°19'1515.2
2015-May-04 19:33N 37°05' E 002°60'1615.7
2015-May-04 18:33N 37°03' E 002°41'1715.5
2015-May-04 17:27N 36°60' E 002°20'1515.1
2015-May-04 16:27N 36°57' E 002°01'1415.6
2015-May-04 15:33N 36°55' E 001°44'1615.6
2015-May-04 14:33N 36°53' E 001°24'1615.6
2015-May-04 13:34N 36°50' E 001°05'1515.3
2015-May-04 12:34N 36°47' E 000°47'1615.4
2015-May-04 11:33N 36°42' E 000°28'1515.2
2015-May-04 10:33N 36°38' E 000°10'1514.9
2015-May-04 09:33N 36°34' W 000°08'1514.9
2015-May-04 08:33N 36°30' W 000°26'1514.7
2015-May-04 07:33N 36°26' W 000°43'1514.7
2015-May-04 06:33N 36°23' W 001°01'1515.0
2015-May-04 05:33N 36°19' W 001°19'1715.1
2015-May-04 04:26N 36°15' W 001°39'1314.9
2015-May-04 03:34N 36°12' W 001°55'1515.2
2015-May-04 02:33N 36°11' W 002°14'1514.7
2015-May-04 01:31N 36°10' W 002°33'1414.1
2015-May-04 00:34N 36°07' W 002°49'1414.2
2015-May-03 23:33N 36°06' W 003°07'1414.2
2015-May-03 22:33N 36°06' W 003°24'1414.3
2015-May-03 21:33N 36°05' W 003°42'8015.9
2015-May-03 16:34N 35°59' W 005°20'6715.3
2015-May-03 12:10N 35°36' W 006°38'914.7
2015-May-03 11:33N 35°29' W 006°46'2014.7
2015-May-03 10:14N 35°15' W 007°02'1015.0
2015-May-03 09:33N 35°08' W 007°10'3014.9
2015-May-03 07:33N 34°45' W 007°34'1914.6
2015-May-03 06:16N 34°31' W 007°48'1114.9
2015-May-03 05:34N 34°22' W 007°57'2114.9
2015-May-03 04:08N 34°06' W 008°13'915.0
2015-May-03 03:33N 33°59' W 008°20'1914.8
2015-May-03 02:15N 33°44' W 008°34'1414.8
2015-May-03 01:17N 33°30' W 008°39'  
Track history (hours):
 
Tides and Currents Weather Stations Pressure Air Temp Water Temp Dewpoint Dewpoint Depression Visibility Wind Speed Wind Dir Waves Ship Positions

Argent Gerbera

Last reported at 2015-May-08 23:25 UTC. Time now 2015-May-29 20:26 UTC.
Position N 31°52' E 031°45'.
Warning: this ship's position is 20 days out of date.

Length 175 m; draft 11.3 m.

Type: Ship (hazmat cat C). MMSI: 538003929.

Date/timePositionNaut miles runAvg speedWind from/ knotsBaromVisibWave heightAir tempDewpointWater temp
2015-May-08 23:25N 31°52' E 031°45'1214.3
2015-May-08 22:33N 31°55' E 031°31'1414.2
2015-May-08 21:33N 31°59' E 031°16'1414.0
2015-May-08 20:34N 32°03' E 030°60'1413.6
2015-May-08 19:34N 32°08' E 030°44'1413.7
2015-May-08 18:33N 32°12' E 030°29'1413.7
2015-May-08 17:33N 32°16' E 030°14'1414.0
2015-May-08 16:33N 32°20' E 029°58'1414.0
2015-May-08 15:32N 32°25' E 029°42'1413.9
2015-May-08 14:33N 32°28' E 029°26'1413.7
2015-May-08 13:33N 32°32' E 029°10'1414.0
2015-May-08 12:31N 32°36' E 028°54'1514.8
2015-May-08 11:32N 32°41' E 028°38'3515.7
2015-May-08 09:17N 32°52' E 027°58'1214.6
2015-May-08 08:28N 32°55' E 027°44'52914.6
2015-May-06 20:11N 35°33' E 017°34'1614.9
2015-May-06 19:07N 35°38' E 017°15'1114.7
2015-May-06 18:20N 35°41' E 017°02'1214.6
2015-May-06 17:32N 35°45' E 016°48'1814.4
2015-May-06 16:17N 35°50' E 016°27'1114.5
2015-May-06 15:33N 35°54' E 016°14'1514.8
2015-May-06 14:33N 35°58' E 015°57'1514.8
2015-May-06 13:30N 36°02' E 015°38'1415.0
2015-May-06 12:33N 36°06' E 015°21'1514.7
2015-May-06 11:33N 36°11' E 015°04'1514.7
2015-May-06 10:33N 36°15' E 014°47'1514.5
2015-May-06 09:33N 36°21' E 014°30'1514.7
2015-May-06 08:33N 36°29' E 014°15'1515.1
2015-May-06 07:33N 36°37' E 013°59'1515.2
2015-May-06 06:34N 36°44' E 013°42'1515.2
2015-May-06 05:33N 36°50' E 013°25'1515.0
2015-May-06 04:34N 36°57' E 013°08'1514.7
2015-May-06 03:33N 37°03' E 012°51'1514.8
2015-May-06 02:34N 37°07' E 012°33'1514.8
2015-May-06 01:33N 37°12' E 012°16'1514.9
2015-May-06 00:33N 37°17' E 011°58'1514.9
2015-May-05 23:31N 37°23' E 011°40'1414.6
2015-May-05 22:33N 37°28' E 011°24'3115.0
2015-May-05 20:29N 37°39' E 010°47'4314.8
2015-May-05 17:33N 37°50' E 009°54'1515.1
2015-May-05 16:33N 37°50' E 009°35'1615.3
2015-May-05 15:33N 37°50' E 009°16'1515.3
2015-May-05 14:33N 37°50' E 008°56'1514.7
2015-May-05 13:32N 37°49' E 008°37'1914.4
2015-May-05 12:14N 37°46' E 008°14'10114.9
2015-May-05 05:29N 37°31' E 006°08'1415.7
2015-May-05 04:34N 37°29' E 005°50'1615.4
2015-May-05 03:33N 37°26' E 005°31'4815.1
2015-May-05 00:22N 37°17' E 004°31'1214.9
2015-May-04 23:33N 37°16' E 004°16'1715.4
2015-May-04 22:28N 37°14' E 003°55'2115.6
2015-May-04 21:07N 37°09' E 003°30'915.3
2015-May-04 20:33N 37°07' E 003°19'1515.2
2015-May-04 19:33N 37°05' E 002°60'1615.7
2015-May-04 18:33N 37°03' E 002°41'1715.5
2015-May-04 17:27N 36°60' E 002°20'1515.1
2015-May-04 16:27N 36°57' E 002°01'1415.6
2015-May-04 15:33N 36°55' E 001°44'1615.6
2015-May-04 14:33N 36°53' E 001°24'1615.6
2015-May-04 13:34N 36°50' E 001°05'1515.3
2015-May-04 12:34N 36°47' E 000°47'1615.4
2015-May-04 11:33N 36°42' E 000°28'1515.2
2015-May-04 10:33N 36°38' E 000°10'1514.9
2015-May-04 09:33N 36°34' W 000°08'1514.9
2015-May-04 08:33N 36°30' W 000°26'1514.7
2015-May-04 07:33N 36°26' W 000°43'1514.7
2015-May-04 06:33N 36°23' W 001°01'1515.0
2015-May-04 05:33N 36°19' W 001°19'1715.1
2015-May-04 04:26N 36°15' W 001°39'1314.9
2015-May-04 03:34N 36°12' W 001°55'1515.2
2015-May-04 02:33N 36°11' W 002°14'1514.7
2015-May-04 01:31N 36°10' W 002°33'1414.1
2015-May-04 00:34N 36°07' W 002°49'1414.2
2015-May-03 23:33N 36°06' W 003°07'1414.2
2015-May-03 22:33N 36°06' W 003°24'1414.3
2015-May-03 21:33N 36°05' W 003°42'8015.9
2015-May-03 16:34N 35°59' W 005°20'6715.3
2015-May-03 12:10N 35°36' W 006°38'914.7
2015-May-03 11:33N 35°29' W 006°46'2014.7
2015-May-03 10:14N 35°15' W 007°02'1015.0
2015-May-03 09:33N 35°08' W 007°10'3014.9
2015-May-03 07:33N 34°45' W 007°34'1914.6
2015-May-03 06:16N 34°31' W 007°48'1114.9
2015-May-03 05:34N 34°22' W 007°57'2114.9
2015-May-03 04:08N 34°06' W 008°13'915.0
2015-May-03 03:33N 33°59' W 008°20'1914.8
2015-May-03 02:15N 33°44' W 008°34'1414.8
2015-May-03 01:17N 33°30' W 008°39'  

Dump ship's entire track history